Rudyard, MI

7:31 PM EDT on May 04, 2015 (GMT -0400)
MesoWest | | Change Station
CLOSE
Current Station
Personal Weather Station
Location: Rudyard, MI
Elevation: 668 ft
Nearby Weather Stations

Elev 668 ft 46.19 °N, 84.56 °W | Updated 1 hour ago

Clear
Clear
61.0 °F
Feels Like 61.0 °F
N
19.0
Wind Variable Wind from NNW
Gusts 24.0 mph

Today
High -- | Low -- °F
--% Chance of Precip.
Yesterday
High -- | Low -- °F
Precip. -- in
6:20 AM 8:50 PM
Full, 99% visible
Pressure 30.18 in
Visibility 10.0 miles
Clouds Clear
Dew Point 46.0 °F
Humidity 57%
Rainfall in
Snow Depth Not available.
UV 1 out of 12
Pollen 8.80 out of 12
Air Quality Not available.
Flu Activity Regional
METAR KCIU 042315Z AUTO 32015G24KT 10SM CLR 12/04 A3018 RMK AO1

More Conditions Fewer Conditions

Pressure 30.18 in
Visibility 10.0 miles
Clouds Clear
Dew Point 46.0 °F
Humidity 57%
Rainfall in
Snow Depth Not available.
UV 1 out of 12
Pollen 8.80 out of 12
Air Quality Not available.
Flu Activity Regional
METAR KCIU 042315Z AUTO 32015G24KT 10SM CLR 12/04 A3018 RMK AO1

More Conditions Fewer Conditions

Nepal has a long way to go to dig out and rebuild from a devastating earthquake. We have teamed up with several charities and organizations to make contributing to the relief effort as easy as possible.
How you can help: Portlight Strategies | Red Cross
Nowcast | as of 7:00 PM EDT on May 4, 2015

At 8 PM...mostly clear. Temperature 50. Northwest winds 10 mph. At 10 PM...mostly clear. Temperature 46. Northwest winds 6 mph. At 12 am...mostly clear. Temperature 42. Light winds. At 2 am...mostly clear. Temperature 42. Light winds.

×

10-Day Weather Forecast

Almanac

Astronomy

May. 04, 2015 Rise Set
Actual Time
Civil Twilight
Nautical Twilight
Astronomical Twilight
Moon
Length of Visible Light
Length of Day
Tomorrow will be .
, % of the Moon is Illuminated

Today's Extremes

State Highs State Lows

Community

WunderPhotos

Upload Photos

1,818,734 photos uploaded!

WunderBlogs® & News

Nearby

Air Quality

  Air Quality AQ Index Pollutant
Not available.

Snow Depth

Station Depth Elevation

Earthquake Activity

City Distance Mag. Time & Date
Minimum magnitude displayed is 2.5.

Coastal Water Temperatures

Place Temperature

Stations

Nearby Weather Stations

Station Location Temp. Windchill Dew Point Humidity Wind Precip. Elev Updated Type